Time;durP1;ratioP1;P1;durP2;ratioP2;P2;SDS_P1;SDS_P2;PMS_P1;PMS_P2;Temp;Humidity;BMP_temperature;BMP_pressure;BME280_temperature;BME280_humidity;BME280_pressure;Samples;Min_cycle;Max_cycle;Signal;HPM_P1;HPM_P2
2023/03/22 00:00:15;;;;;;;5.13;3.73;;;;;;;;;;6070692;23;20433;-76
2023/03/22 00:02:55;;;;;;;4.20;3.40;;;;;;;;;;6071180;23;20901;-78
2023/03/22 00:05:40;;;;;;;4.00;3.57;;;;;;;;;;6070139;23;20430;-77
2023/03/22 00:08:12;;;;;;;6.20;5.70;;;;;;;;;;6070791;23;20425;-77
2023/03/22 00:10:51;;;;;;;12.60;10.63;;;;;;;;;;6070247;23;20415;-76
2023/03/22 00:13:22;;;;;;;6.70;6.03;;;;;;;;;;6070675;23;20425;-77
2023/03/22 00:15:58;;;;;;;4.60;4.20;;;;;;;;;;6069312;23;20435;-76
2023/03/22 00:18:40;;;;;;;3.73;3.53;;;;;;;;;;6070102;23;20422;-76
2023/03/22 00:21:22;;;;;;;3.90;3.60;;;;;;;;;;6070012;23;20419;-77
2023/03/22 00:24:07;;;;;;;;;;;;;;;;;;;;;
2023/03/22 00:27:03;;;;;;;;;;;;;;;;;;;;;
2023/03/22 00:29:53;;;;;;;4.70;4.30;;;;;;;;;;6070341;23;20482;-76
2023/03/22 00:32:27;;;;;;;4.80;4.40;;;;;;;;;;6070974;23;20461;-77
2023/03/22 00:35:35;;;;;;;;;;;;;;;;;;;;;
2023/03/22 00:41:17;;;;;;;5.03;3.93;;;;;;;;;;5993263;23;20396;-77
2023/03/22 00:43:48;;;;;;;4.77;4.37;;;;;;;;;;6026416;23;20412;-76
2023/03/22 00:46:27;;;;;;;3.50;3.30;;;;;;;;;;6070805;23;20434;-77
2023/03/22 00:48:57;;;;;;;5.13;4.10;;;;;;;;;;6087228;23;20414;-76
2023/03/22 00:51:53;;;;;;;3.73;3.43;;;;;;;;;;6088510;23;20415;-75
2023/03/22 00:54:26;;;;;;;6.20;4.13;;;;;;;;;;6088313;23;20453;-77
2023/03/22 01:06:30;;;;;;;4.57;4.13;;;;;;;;;;5921190;24;20399;-77
2023/03/22 01:09:13;;;;;;;4.67;4.30;;;;;;;;;;5931542;23;20427;-76
2023/03/22 01:11:55;;;;;;;5.13;4.63;;;;;;;;;;6006949;23;20512;-76
2023/03/22 01:14:24;;;;;;;5.10;4.00;;;;;;;;;;6006404;23;20551;-78
2023/03/22 01:17:09;;;;;;;;;;;;;;;;;;;;;
2023/03/22 01:19:43;;;;;;;4.33;3.90;;;;;;;;;;6030458;23;20422;-75
2023/03/22 01:22:15;;;;;;;7.50;4.40;;;;;;;;;;6086076;23;20430;-75
2023/03/22 01:24:47;;;;;;;4.67;4.27;;;;;;;;;;6092857;23;20482;-75
2023/03/22 01:27:18;;;;;;;4.67;4.27;;;;;;;;;;6092078;23;20445;-74
2023/03/22 01:29:49;;;;;;;4.73;3.83;;;;;;;;;;6083633;23;20419;-76
2023/03/22 01:32:23;;;;;;;4.83;4.43;;;;;;;;;;6068785;23;20418;-77
2023/03/22 01:35:01;;;;;;;4.50;4.10;;;;;;;;;;6067083;23;20518;-76
2023/03/22 01:37:34;;;;;;;4.90;4.50;;;;;;;;;;6066949;23;20445;-76
2023/03/22 01:40:06;;;;;;;5.70;5.20;;;;;;;;;;6066447;23;20744;-76
2023/03/22 01:42:45;;;;;;;4.57;4.10;;;;;;;;;;6066350;23;20437;-74
2023/03/22 01:45:35;;;;;;;4.60;4.30;;;;;;;;;;6065926;23;20435;-76
2023/03/22 01:48:06;;;;;;;5.13;4.63;;;;;;;;;;6066169;23;20493;-76
2023/03/22 01:50:37;;;;;;;4.70;4.40;;;;;;;;;;6065841;23;20449;-76
2023/03/22 01:53:12;;;;;;;4.20;3.90;;;;;;;;;;6066237;23;20510;-78
2023/03/22 01:55:44;;;;;;;4.50;4.10;;;;;;;;;;6066383;23;20984;-76
2023/03/22 01:58:14;;;;;;;4.87;4.37;;;;;;;;;;6066310;23;20856;-77
2023/03/22 02:00:47;;;;;;;7.87;4.33;;;;;;;;;;6066396;23;20399;-76
2023/03/22 02:03:16;;;;;;;4.30;4.00;;;;;;;;;;6066345;23;20442;-76
2023/03/22 02:05:46;;;;;;;4.80;4.40;;;;;;;;;;6066618;23;20434;-77
2023/03/22 02:08:23;;;;;;;5.80;4.53;;;;;;;;;;6065905;23;20418;-78
2023/03/22 02:10:58;;;;;;;4.90;4.50;;;;;;;;;;6066563;23;20484;-77
2023/03/22 02:13:41;;;;;;;4.50;4.20;;;;;;;;;;6067379;23;20418;-78
2023/03/22 02:16:19;;;;;;;4.60;4.20;;;;;;;;;;6067634;23;20825;-76
2023/03/22 02:19:10;;;;;;;4.70;4.27;;;;;;;;;;6067552;23;20763;-75
2023/03/22 02:22:09;;;;;;;11.23;4.70;;;;;;;;;;6069684;23;20379;-76
2023/03/22 02:27:56;;;;;;;4.80;4.40;;;;;;;;;;5985796;23;20385;-77
2023/03/22 02:30:48;;;;;;;5.00;4.30;;;;;;;;;;6070909;23;20419;-77
2023/03/22 02:33:26;;;;;;;4.77;4.37;;;;;;;;;;6071745;23;20410;-76
2023/03/22 02:36:11;;;;;;;4.47;4.17;;;;;;;;;;6072185;23;20447;-76
2023/03/22 02:39:06;;;;;;;4.70;4.20;;;;;;;;;;6072896;23;20506;-78
2023/03/22 02:51:18;;;;;;;;;;;;;;;;;;;;;
2023/03/22 02:54:10;;;;;;;4.40;4.10;;;;;;;;;;6080935;23;20456;-75
2023/03/22 02:56:51;;;;;;;5.60;4.83;;;;;;;;;;6081605;23;20407;-75
2023/03/22 02:59:29;;;;;;;4.20;3.90;;;;;;;;;;6081943;23;20438;-76
2023/03/22 03:04:56;;;;;;;;;;;;;;;;;;;;;
2023/03/22 03:10:31;;;;;;;4.90;4.23;;;;;;;;;;6073583;23;20419;-77
2023/03/22 03:13:19;;;;;;;5.53;4.00;;;;;;;;;;6075904;23;20462;-76
2023/03/22 03:16:06;;;;;;;4.97;4.40;;;;;;;;;;6076525;23;20446;-75
2023/03/22 03:21:58;;;;;;;4.40;3.97;;;;;;;;;;6057354;23;20391;-76
2023/03/22 03:24:41;;;;;;;4.40;4.00;;;;;;;;;;6078075;23;20461;-76
2023/03/22 03:27:18;;;;;;;6.90;4.30;;;;;;;;;;6079368;23;20747;-76
2023/03/22 03:33:10;;;;;;;4.13;3.73;;;;;;;;;;6076296;23;20342;-76
2023/03/22 03:36:02;;;;;;;4.47;4.07;;;;;;;;;;6069484;23;20446;-76
2023/03/22 03:38:40;;;;;;;4.20;3.90;;;;;;;;;;6016114;23;20445;-75
2023/03/22 03:41:21;;;;;;;5.40;4.07;;;;;;;;;;6015929;23;20440;-76
2023/03/22 03:43:52;;;;;;;4.40;4.00;;;;;;;;;;6070607;23;20722;-77
2023/03/22 03:46:26;;;;;;;5.23;4.73;;;;;;;;;;6073747;23;20391;-76
2023/03/22 03:49:07;;;;;;;5.17;4.67;;;;;;;;;;6072804;23;20422;-76
2023/03/22 03:51:36;;;;;;;7.40;4.10;;;;;;;;;;6073274;23;20411;-76
2023/03/22 03:54:13;;;;;;;4.20;3.90;;;;;;;;;;6071890;23;20418;-75
2023/03/22 03:56:43;;;;;;;4.40;4.10;;;;;;;;;;6072625;23;20431;-77
2023/03/22 03:59:19;;;;;;;4.87;4.53;;;;;;;;;;6071828;23;20415;-77
2023/03/22 04:01:56;;;;;;;4.60;4.30;;;;;;;;;;6072322;23;20422;-76
2023/03/22 04:04:34;;;;;;;4.27;3.97;;;;;;;;;;6072172;23;20445;-77
2023/03/22 04:07:02;;;;;;;4.90;4.40;;;;;;;;;;6072459;23;20517;-75
2023/03/22 04:09:31;;;;;;;4.20;3.90;;;;;;;;;;6071438;23;20442;-75
2023/03/22 04:11:58;;;;;;;4.53;4.20;;;;;;;;;;6071658;23;20426;-76
2023/03/22 04:14:26;;;;;;;5.83;4.23;;;;;;;;;;6074104;23;20466;-74
2023/03/22 04:16:54;;;;;;;4.60;4.20;;;;;;;;;;6074592;23;20423;-75
2023/03/22 04:19:22;;;;;;;4.77;4.37;;;;;;;;;;6075137;23;20633;-76
2023/03/22 04:21:53;;;;;;;5.10;3.80;;;;;;;;;;6077399;23;20813;-76
2023/03/22 04:30:09;;;;;;;4.23;3.83;;;;;;;;;;6089012;23;20439;-75
2023/03/22 04:32:50;;;;;;;4.60;4.20;;;;;;;;;;6092861;23;20430;-74
2023/03/22 04:35:26;;;;;;;4.67;3.90;;;;;;;;;;6090947;23;20435;-75
2023/03/22 04:38:21;;;;;;;3.97;3.70;;;;;;;;;;6076907;23;20418;-76
2023/03/22 04:40:58;;;;;;;4.80;4.50;;;;;;;;;;6069344;23;20418;-77
2023/03/22 04:43:34;;;;;;;5.60;3.87;;;;;;;;;;6068184;23;20486;-76
2023/03/22 04:46:11;;;;;;;4.37;4.07;;;;;;;;;;6067326;23;20416;-76
2023/03/22 04:48:50;;;;;;;4.30;4.00;;;;;;;;;;6067035;23;20473;-77
2023/03/22 04:51:31;;;;;;;4.13;3.90;;;;;;;;;;6067249;23;20505;-76
2023/03/22 04:54:25;;;;;;;4.90;3.90;;;;;;;;;;6066349;23;20502;-76
2023/03/22 04:56:59;;;;;;;6.60;3.90;;;;;;;;;;6065108;23;20796;-77
2023/03/22 04:59:34;;;;;;;4.03;3.70;;;;;;;;;;6066667;23;20506;-77
2023/03/22 05:02:18;;;;;;;3.87;3.57;;;;;;;;;;6066847;23;20417;-76
2023/03/22 05:04:56;;;;;;;4.23;4.00;;;;;;;;;;6069374;23;20438;-75
2023/03/22 05:07:26;;;;;;;4.20;3.90;;;;;;;;;;6071530;23;20437;-76
2023/03/22 05:10:00;;;;;;;4.40;4.00;;;;;;;;;;6071795;23;20421;-76
2023/03/22 05:12:31;;;;;;;4.30;3.90;;;;;;;;;;6071226;23;20501;-77
2023/03/22 05:15:05;;;;;;;4.37;3.97;;;;;;;;;;6071111;23;20445;-76
2023/03/22 05:17:45;;;;;;;5.50;4.20;;;;;;;;;;6071702;23;20467;-78
2023/03/22 05:20:25;;;;;;;4.30;3.90;;;;;;;;;;6071566;23;20414;-79
2023/03/22 05:22:56;;;;;;;5.60;4.07;;;;;;;;;;6072242;23;20414;-75
2023/03/22 05:25:31;;;;;;;4.70;4.03;;;;;;;;;;6069618;23;20514;-77
2023/03/22 05:28:02;;;;;;;4.30;4.00;;;;;;;;;;6071977;23;20477;-75
2023/03/22 05:30:42;;;;;;;4.77;4.37;;;;;;;;;;6072798;23;20418;-76
2023/03/22 05:33:20;;;;;;;5.27;4.77;;;;;;;;;;6073412;23;20714;-76
2023/03/22 05:36:15;;;;;;;;;;;;;;;;;;;;;
2023/03/22 05:38:52;;;;;;;4.10;3.77;;;;;;;;;;6072368;23;20410;-76
2023/03/22 05:41:30;;;;;;;5.83;4.23;;;;;;;;;;6072748;23;20418;-77
2023/03/22 05:44:02;;;;;;;4.57;4.17;;;;;;;;;;6068940;23;20435;-76
2023/03/22 05:46:34;;;;;;;4.87;3.90;;;;;;;;;;6071112;23;20415;-77
2023/03/22 05:49:04;;;;;;;4.77;4.30;;;;;;;;;;6071452;23;20418;-75
2023/03/22 05:51:50;;;;;;;5.00;4.47;;;;;;;;;;6075077;23;20439;-77
2023/03/22 05:57:29;;;;;;;4.83;4.10;;;;;;;;;;6072055;23;20448;-77
2023/03/22 06:00:12;;;;;;;7.20;4.17;;;;;;;;;;6076810;23;20511;-76
2023/03/22 06:02:55;;;;;;;6.60;4.53;;;;;;;;;;6074582;23;20411;-77
2023/03/22 06:05:25;;;;;;;4.93;4.53;;;;;;;;;;6076061;23;20498;-78
2023/03/22 06:07:55;;;;;;;5.43;3.87;;;;;;;;;;6079940;23;20398;-76
2023/03/22 06:10:32;;;;;;;4.17;3.87;;;;;;;;;;6082176;23;20438;-77
2023/03/22 06:13:13;;;;;;;4.10;3.80;;;;;;;;;;6080412;23;20403;-78
2023/03/22 06:15:58;;;;;;;5.00;4.10;;;;;;;;;;6074550;23;20488;-76
2023/03/22 06:21:25;;;;;;;4.53;4.13;;;;;;;;;;6060819;23;20455;-77
2023/03/22 06:23:53;;;;;;;5.23;4.73;;;;;;;;;;6069865;23;20897;-76
2023/03/22 06:26:31;;;;;;;5.27;3.87;;;;;;;;;;6069029;23;20437;-78
2023/03/22 06:29:05;;;;;;;5.07;3.73;;;;;;;;;;6070810;23;20417;-77
2023/03/22 06:31:39;;;;;;;4.40;4.10;;;;;;;;;;6072021;23;20418;-76
2023/03/22 06:34:12;;;;;;;7.37;4.33;;;;;;;;;;6068392;23;20443;-77
2023/03/22 06:36:52;;;;;;;4.60;4.13;;;;;;;;;;6067606;23;20446;-77
2023/03/22 06:39:31;;;;;;;4.87;3.93;;;;;;;;;;6069170;23;20438;-80
2023/03/22 06:41:59;;;;;;;4.80;4.40;;;;;;;;;;6069116;23;20517;-78
2023/03/22 06:44:33;;;;;;;7.00;4.80;;;;;;;;;;6070501;23;20497;-78
2023/03/22 06:47:06;;;;;;;3.97;3.57;;;;;;;;;;6069600;23;20395;-78
2023/03/22 06:49:37;;;;;;;4.20;3.77;;;;;;;;;;6069620;23;20944;-77
2023/03/22 06:52:19;;;;;;;4.87;3.97;;;;;;;;;;6068549;23;20494;-79
2023/03/22 06:58:00;;;;;;;5.77;4.73;;;;;;;;;;6007443;23;20400;-77
2023/03/22 07:01:08;;;;;;;;;;;;;;;;;;;;;
2023/03/22 07:10:25;;;;;;;;;;;;;;;;;;;;;
2023/03/22 07:13:20;;;;;;;4.57;4.13;;;;;;;;;;6078070;23;20410;-77
2023/03/22 07:19:13;;;;;;;7.20;5.17;;;;;;;;;;6081641;23;20431;-78
2023/03/22 07:21:53;;;;;;;4.83;4.20;;;;;;;;;;6089503;23;20434;-76
2023/03/22 07:27:41;;;;;;;2.93;2.60;;;;;;;;;;6069071;23;20415;-77
2023/03/22 07:33:28;;;;;;;;;;;;;;;;;;;;;
2023/03/22 07:35:57;;;;;;;3.00;2.80;;;;;;;;;;6087229;23;20453;-78
2023/03/22 07:38:34;;;;;;;3.70;2.60;;;;;;;;;;6090719;23;20411;-77
2023/03/22 07:41:30;;;;;;;;;;;;;;;;;;;;;
2023/03/22 07:44:15;;;;;;;3.13;2.50;;;;;;;;;;6091870;23;20419;-77
2023/03/22 07:46:53;;;;;;;;;;;;;;;;;;;;;
2023/03/22 07:49:50;;;;;;;3.27;2.97;;;;;;;;;;6092909;23;20505;-77
2023/03/22 08:11:52;;;;;;;2.60;2.40;;;;;;;;;;5838566;24;20449;-78
2023/03/22 08:14:57;;;;;;;4.03;2.23;;;;;;;;;;5896722;24;20874;-77
2023/03/22 08:17:57;;;;;;;4.03;2.27;;;;;;;;;;5939160;23;20457;-77
2023/03/22 08:20:30;;;;;;;6.07;2.47;;;;;;;;;;6040310;23;20502;-78
2023/03/22 08:22:59;;;;;;;2.73;2.50;;;;;;;;;;6068620;23;20406;-77
2023/03/22 08:25:34;;;;;;;2.07;1.97;;;;;;;;;;6083966;23;20473;-76
2023/03/22 08:28:12;;;;;;;2.43;1.87;;;;;;;;;;6092686;23;20403;-77
2023/03/22 08:39:52;;;;;;;7.10;2.27;;;;;;;;;;6060539;23;20424;-77
2023/03/22 08:42:31;;;;;;;1.70;1.60;;;;;;;;;;6060523;23;20406;-75
2023/03/22 08:45:18;;;;;;;2.53;2.30;;;;;;;;;;6060089;23;20439;-77
2023/03/22 08:50:50;;;;;;;1.83;1.60;;;;;;;;;;6058175;23;20479;-76
2023/03/22 08:53:39;;;;;;;1.90;1.30;;;;;;;;;;6058215;23;20426;-76
2023/03/22 08:56:31;;;;;;;1.43;1.33;;;;;;;;;;6049012;23;20454;-77
2023/03/22 08:59:02;;;;;;;1.53;1.40;;;;;;;;;;6024272;23;20435;-76
2023/03/22 09:01:59;;;;;;;1.93;1.50;;;;;;;;;;6054017;23;20437;-77
2023/03/22 09:04:37;;;;;;;2.03;1.70;;;;;;;;;;6054569;23;20435;-76
2023/03/22 09:13:12;;;;;;;1.30;1.20;;;;;;;;;;6002881;23;20573;-77
2023/03/22 09:15:59;;;;;;;1.23;1.20;;;;;;;;;;6046320;23;20499;-77
2023/03/22 09:18:40;;;;;;;1.50;1.40;;;;;;;;;;6047776;23;20435;-77
2023/03/22 09:21:22;;;;;;;1.70;1.60;;;;;;;;;;6049464;23;20415;-76
2023/03/22 09:23:52;;;;;;;2.20;1.20;;;;;;;;;;6045038;23;20456;-77
2023/03/22 09:26:32;;;;;;;1.53;1.43;;;;;;;;;;6044708;23;20961;-78
2023/03/22 09:29:03;;;;;;;1.80;1.70;;;;;;;;;;6044946;23;20424;-76
2023/03/22 09:31:40;;;;;;;1.70;1.60;;;;;;;;;;6050011;23;20419;-77
2023/03/22 09:34:36;;;;;;;1.43;1.30;;;;;;;;;;6044218;23;20439;-77
2023/03/22 09:37:50;;;;;;;1.63;1.40;;;;;;;;;;6046967;23;20447;-76
2023/03/22 09:43:51;;;;;;;2.10;1.17;;;;;;;;;;6023439;23;20398;-78
2023/03/22 09:46:31;;;;;;;1.37;1.30;;;;;;;;;;6077396;23;21011;-76
2023/03/22 09:49:11;;;;;;;1.33;1.00;;;;;;;;;;6071480;23;20418;-77
2023/03/22 09:51:44;;;;;;;1.37;1.27;;;;;;;;;;6072600;23;20415;-77
2023/03/22 09:54:23;;;;;;;0.93;0.93;;;;;;;;;;6071234;23;20437;-77
2023/03/22 09:56:58;;;;;;;1.47;1.17;;;;;;;;;;6072606;23;20454;-77
2023/03/22 09:59:45;;;;;;;1.47;1.37;;;;;;;;;;6072887;23;20488;-77
2023/03/22 10:02:30;;;;;;;1.23;1.20;;;;;;;;;;6072539;23;20442;-76
2023/03/22 10:05:06;;;;;;;1.93;1.37;;;;;;;;;;6072245;23;20829;-77
2023/03/22 10:07:40;;;;;;;1.50;1.30;;;;;;;;;;6075101;23;20417;-77
2023/03/22 10:10:17;;;;;;;1.77;1.50;;;;;;;;;;6076667;23;20812;-77
2023/03/22 10:12:51;;;;;;;1.50;1.40;;;;;;;;;;6075129;23;20489;-78
2023/03/22 10:15:36;;;;;;;1.27;1.20;;;;;;;;;;6074986;23;20411;-76
2023/03/22 10:18:17;;;;;;;1.10;1.10;;;;;;;;;;6077343;23;20490;-76
2023/03/22 10:21:00;;;;;;;1.47;1.37;;;;;;;;;;6078183;23;20419;-77
2023/03/22 10:23:31;;;;;;;1.50;1.40;;;;;;;;;;6077782;23;20418;-76
2023/03/22 10:26:03;;;;;;;1.17;1.17;;;;;;;;;;6078465;23;20419;-78
2023/03/22 10:28:36;;;;;;;2.60;1.40;;;;;;;;;;6077894;23;20470;-76
2023/03/22 10:31:08;;;;;;;3.07;1.40;;;;;;;;;;6074173;23;20506;-78
2023/03/22 10:33:38;;;;;;;1.30;1.20;;;;;;;;;;6076026;23;20426;-77
2023/03/22 10:36:19;;;;;;;1.80;1.70;;;;;;;;;;6074832;23;20415;-76
2023/03/22 10:39:03;;;;;;;2.57;1.23;;;;;;;;;;6074439;23;20425;-77
2023/03/22 10:44:24;;;;;;;1.70;1.60;;;;;;;;;;6073714;23;20434;-76
2023/03/22 10:47:05;;;;;;;1.33;1.23;;;;;;;;;;6075607;23;20947;-76
2023/03/22 10:49:37;;;;;;;4.50;3.13;;;;;;;;;;6073552;23;20426;-77
2023/03/22 10:52:13;;;;;;;1.50;1.40;;;;;;;;;;6072758;23;20506;-76
2023/03/22 10:55:19;;;;;;;2.80;1.30;;;;;;;;;;6073269;23;20434;-77
2023/03/22 10:58:19;;;;;;;1.43;1.33;;;;;;;;;;6050672;23;20502;-75
2023/03/22 11:00:53;;;;;;;1.40;1.30;;;;;;;;;;6080428;23;20411;-76
2023/03/22 11:03:54;;;;;;;1.40;1.30;;;;;;;;;;6080331;23;20387;-77
2023/03/22 11:06:31;;;;;;;1.87;1.17;;;;;;;;;;6079398;23;20379;-77
2023/03/22 11:09:05;;;;;;;0.83;0.83;;;;;;;;;;6081464;23;20948;-77
2023/03/22 11:11:40;;;;;;;1.33;1.07;;;;;;;;;;6085191;23;20407;-75
2023/03/22 11:14:17;;;;;;;2.50;1.43;;;;;;;;;;6088298;23;20422;-76
2023/03/22 11:16:49;;;;;;;2.00;1.10;;;;;;;;;;6087024;23;20438;-75
2023/03/22 11:19:21;;;;;;;2.03;1.40;;;;;;;;;;6080633;23;20445;-77
2023/03/22 11:22:06;;;;;;;;;;;;;;;;;;;;;
2023/03/22 11:24:58;;;;;;;1.00;1.00;;;;;;;;;;6087184;23;20415;-77
2023/03/22 11:27:37;;;;;;;0.87;0.87;;;;;;;;;;6091827;23;20415;-74
2023/03/22 11:30:22;;;;;;;1.97;1.03;;;;;;;;;;6093931;23;20431;-74
2023/03/22 11:33:12;;;;;;;0.83;0.70;;;;;;;;;;6078567;23;20415;-77
2023/03/22 11:36:01;;;;;;;1.03;0.90;;;;;;;;;;6074529;23;20430;-77
2023/03/22 11:44:57;;;;;;;0.90;0.90;;;;;;;;;;5959965;24;20446;-76
2023/03/22 11:47:46;;;;;;;3.67;0.97;;;;;;;;;;5963862;24;20403;-75
2023/03/22 11:53:40;;;;;;;1.27;1.07;;;;;;;;;;5953181;24;20402;-76
2023/03/22 11:56:33;;;;;;;0.90;0.90;;;;;;;;;;5936547;24;20406;-75
2023/03/22 11:59:10;;;;;;;1.40;1.20;;;;;;;;;;5968230;23;20545;-76
2023/03/22 12:01:45;;;;;;;0.90;0.90;;;;;;;;;;6093649;23;20602;-75
2023/03/22 12:04:17;;;;;;;0.87;0.87;;;;;;;;;;6092846;23;20455;-75
2023/03/22 12:06:47;;;;;;;0.90;0.87;;;;;;;;;;6091264;23;20390;-76
2023/03/22 12:12:31;;;;;;;0.70;0.70;;;;;;;;;;6074191;23;20425;-75
2023/03/22 12:15:09;;;;;;;0.60;0.60;;;;;;;;;;6078427;23;20411;-78
2023/03/22 12:17:45;;;;;;;1.27;0.70;;;;;;;;;;6072707;23;20509;-77
2023/03/22 12:20:21;;;;;;;1.13;1.00;;;;;;;;;;6073053;23;20863;-75
2023/03/22 12:22:55;;;;;;;1.43;1.00;;;;;;;;;;6073346;23;20493;-76
2023/03/22 12:25:32;;;;;;;1.17;1.07;;;;;;;;;;6072197;23;20601;-76
2023/03/22 12:31:02;;;;;;;1.73;1.30;;;;;;;;;;6068431;23;20422;-76
2023/03/22 12:33:37;;;;;;;1.23;0.70;;;;;;;;;;6071056;23;20375;-76
2023/03/22 12:36:13;;;;;;;2.10;0.80;;;;;;;;;;6070721;23;20387;-77
2023/03/22 12:38:48;;;;;;;1.13;1.13;;;;;;;;;;6071962;23;20474;-76
2023/03/22 12:41:23;;;;;;;0.90;0.90;;;;;;;;;;6071641;23;20466;-77
2023/03/22 12:43:58;;;;;;;1.10;0.77;;;;;;;;;;6072298;23;20414;-76
2023/03/22 12:46:29;;;;;;;0.87;0.87;;;;;;;;;;6075130;23;20904;-77
2023/03/22 12:49:03;;;;;;;1.33;0.90;;;;;;;;;;6080024;23;20553;-76
2023/03/22 12:51:31;;;;;;;1.33;1.10;;;;;;;;;;6076198;23;20817;-77
2023/03/22 12:54:00;;;;;;;3.23;1.00;;;;;;;;;;6077079;23;20411;-78
2023/03/22 12:56:32;;;;;;;0.90;0.90;;;;;;;;;;6076392;23;20410;-76
2023/03/22 12:59:05;;;;;;;4.17;1.73;;;;;;;;;;6077262;23;20427;-75
2023/03/22 13:01:49;;;;;;;1.13;0.90;;;;;;;;;;6077089;23;20419;-76
2023/03/22 13:04:35;;;;;;;0.80;0.80;;;;;;;;;;6076842;23;20470;-77
2023/03/22 13:07:16;;;;;;;1.97;1.17;;;;;;;;;;6078570;23;20402;-77
2023/03/22 13:09:50;;;;;;;1.43;0.80;;;;;;;;;;6078501;23;20418;-76
2023/03/22 13:12:36;;;;;;;1.43;1.30;;;;;;;;;;6077421;23;20474;-77
2023/03/22 13:15:31;;;;;;;0.80;0.80;;;;;;;;;;6071532;23;20447;-77
2023/03/22 13:18:09;;;;;;;0.80;0.80;;;;;;;;;;6070869;23;20442;-76
2023/03/22 13:20:37;;;;;;;0.80;0.80;;;;;;;;;;6070774;23;20446;-76
2023/03/22 13:23:10;;;;;;;0.80;0.80;;;;;;;;;;6072944;23;20434;-76
2023/03/22 13:25:53;;;;;;;0.80;0.80;;;;;;;;;;6073208;23;20438;-75
2023/03/22 13:28:25;;;;;;;2.87;1.00;;;;;;;;;;6071399;23;20406;-76
2023/03/22 13:30:54;;;;;;;1.00;1.00;;;;;;;;;;6070054;23;20423;-76
2023/03/22 13:33:26;;;;;;;0.70;0.70;;;;;;;;;;6070004;23;20917;-77
2023/03/22 13:35:56;;;;;;;1.60;1.50;;;;;;;;;;6070758;23;20971;-77
2023/03/22 13:38:31;;;;;;;0.93;0.93;;;;;;;;;;6069042;23;20443;-76
2023/03/22 13:41:14;;;;;;;2.00;0.67;;;;;;;;;;6069728;23;20445;-76
2023/03/22 13:43:48;;;;;;;1.20;1.10;;;;;;;;;;6070751;23;20474;-77
2023/03/22 13:46:42;;;;;;;4.47;2.80;;;;;;;;;;6070089;23;20869;-77
2023/03/22 13:49:34;;;;;;;0.80;0.80;;;;;;;;;;6070290;23;20414;-76
2023/03/22 13:52:22;;;;;;;2.03;0.80;;;;;;;;;;6015856;23;20557;-77
2023/03/22 13:58:02;;;;;;;0.97;0.97;;;;;;;;;;6067665;23;20963;-75
2023/03/22 14:00:53;;;;;;;1.20;1.10;;;;;;;;;;6069906;23;20399;-77
2023/03/22 14:03:40;;;;;;;0.97;0.97;;;;;;;;;;6070001;23;20446;-77
2023/03/22 14:09:20;;;;;;;1.60;0.90;;;;;;;;;;6069364;23;20411;-76
2023/03/22 14:12:05;;;;;;;1.07;0.97;;;;;;;;;;6072719;23;20421;-77
2023/03/22 14:15:13;;;;;;;;;;;;;;;;;;;;;
2023/03/22 14:24:14;;;;;;;1.20;1.20;;;;;;;;;;5908151;24;20426;-76
2023/03/22 14:26:55;;;;;;;0.80;0.80;;;;;;;;;;5925757;24;20423;-78
2023/03/22 14:33:04;;;;;;;0.70;0.70;;;;;;;;;;6046404;23;20406;-77
2023/03/22 14:35:44;;;;;;;0.73;0.70;;;;;;;;;;6065358;23;20477;-77
2023/03/22 14:38:41;;;;;;;;;;;;;;;;;;;;;
2023/03/22 14:48:16;;;;;;;;;;;;;;;;;;;;;
2023/03/22 14:54:27;;;;;;;;;;;;;;;;;;;;;
2023/03/22 14:57:05;;;;;;;1.07;1.03;;;;;;;;;;5813430;24;21013;-76
2023/03/22 14:59:56;;;;;;;1.10;0.80;;;;;;;;;;5815245;24;21040;-76
2023/03/22 15:02:48;;;;;;;0.73;0.73;;;;;;;;;;5900755;24;20786;-77
2023/03/22 15:05:39;;;;;;;1.10;1.10;;;;;;;;;;6014978;23;20462;-77
2023/03/22 15:08:30;;;;;;;2.03;1.10;;;;;;;;;;6067207;23;20415;-76
2023/03/22 15:11:17;;;;;;;0.90;0.90;;;;;;;;;;6067320;23;20426;-76
2023/03/22 15:13:51;;;;;;;1.60;0.70;;;;;;;;;;6067504;23;20505;-78
2023/03/22 15:16:43;;;;;;;;;;;;;;;;;;;;;
2023/03/22 15:19:29;;;;;;;0.90;0.90;;;;;;;;;;6068411;23;20442;-76
2023/03/22 15:25:18;;;;;;;2.13;1.60;;;;;;;;;;5940596;24;20533;-76
2023/03/22 15:31:19;;;;;;;1.20;1.10;;;;;;;;;;6050348;23;20403;-76
2023/03/22 15:34:06;;;;;;;1.10;1.10;;;;;;;;;;6058134;23;20419;-77
2023/03/22 15:36:58;;;;;;;3.13;1.10;;;;;;;;;;6068379;23;20423;-76
2023/03/22 15:39:27;;;;;;;1.70;1.10;;;;;;;;;;6067661;23;20588;-77
2023/03/22 15:42:22;;;;;;;1.67;1.03;;;;;;;;;;6068224;23;20422;-77
2023/03/22 15:51:13;;;;;;;1.00;1.00;;;;;;;;;;6057096;23;20419;-77
2023/03/22 15:53:48;;;;;;;1.33;1.13;;;;;;;;;;6067655;23;20422;-77
2023/03/22 15:56:48;;;;;;;1.20;1.20;;;;;;;;;;6067973;23;20457;-76
2023/03/22 16:00:08;;;;;;;1.10;1.10;;;;;;;;;;6067702;23;20478;-77
2023/03/22 16:06:16;;;;;;;1.23;1.00;;;;;;;;;;6050848;23;20437;-77
2023/03/22 16:14:41;;;;;;;1.20;1.10;;;;;;;;;;6033129;23;20486;-77
2023/03/22 16:17:33;;;;;;;0.93;0.93;;;;;;;;;;6069075;23;20423;-77
2023/03/22 16:20:32;;;;;;;1.40;1.30;;;;;;;;;;6067872;23;20849;-77
2023/03/22 16:23:24;;;;;;;1.43;1.33;;;;;;;;;;6068437;23;20762;-78
2023/03/22 16:29:10;;;;;;;1.30;1.30;;;;;;;;;;6019896;23;20438;-77
2023/03/22 16:34:38;;;;;;;1.47;1.37;;;;;;;;;;6012905;23;20447;-76
2023/03/22 16:42:54;;;;;;;1.80;1.50;;;;;;;;;;6033526;23;20391;-77
2023/03/22 16:45:30;;;;;;;3.10;1.57;;;;;;;;;;6069309;23;20454;-78
2023/03/22 16:47:58;;;;;;;3.23;1.63;;;;;;;;;;6067304;23;20426;-77
2023/03/22 16:50:41;;;;;;;3.47;1.43;;;;;;;;;;6069127;23;20414;-78
2023/03/22 16:53:38;;;;;;;1.63;1.53;;;;;;;;;;6068264;23;20801;-77
2023/03/22 16:56:18;;;;;;;2.67;1.60;;;;;;;;;;6068397;23;20474;-78
2023/03/22 16:58:56;;;;;;;1.87;1.50;;;;;;;;;;6068228;23;20434;-79
2023/03/22 17:01:24;;;;;;;1.50;1.40;;;;;;;;;;6067165;23;20450;-78
2023/03/22 17:03:55;;;;;;;1.50;1.40;;;;;;;;;;6067174;23;20410;-77
2023/03/22 17:06:28;;;;;;;1.50;1.40;;;;;;;;;;6067303;23;20430;-78
2023/03/22 17:12:18;;;;;;;1.63;1.40;;;;;;;;;;6059896;23;20497;-76
2023/03/22 17:14:47;;;;;;;1.70;1.60;;;;;;;;;;6067616;23;20438;-78
2023/03/22 17:17:24;;;;;;;1.80;1.67;;;;;;;;;;6068366;23;20421;-78
2023/03/22 17:19:52;;;;;;;2.87;1.67;;;;;;;;;;6067989;23;20446;-78
2023/03/22 17:22:20;;;;;;;6.73;5.23;;;;;;;;;;6067355;23;20506;-78
2023/03/22 17:25:01;;;;;;;2.20;2.00;;;;;;;;;;6069925;23;20443;-78
2023/03/22 17:27:35;;;;;;;2.00;1.90;;;;;;;;;;6069446;23;20427;-78
2023/03/22 17:30:03;;;;;;;3.37;2.90;;;;;;;;;;6069711;23;20461;-76
2023/03/22 17:32:33;;;;;;;2.57;2.30;;;;;;;;;;6068253;23;20407;-78
2023/03/22 17:35:01;;;;;;;1.90;1.80;;;;;;;;;;6070365;23;20961;-78
2023/03/22 17:37:34;;;;;;;2.93;2.13;;;;;;;;;;6072979;23;20912;-78
2023/03/22 17:40:03;;;;;;;1.97;1.87;;;;;;;;;;6070977;23;20560;-77
2023/03/22 17:45:50;;;;;;;3.43;2.20;;;;;;;;;;6062002;23;20431;-77
2023/03/22 17:48:20;;;;;;;2.30;2.20;;;;;;;;;;6047187;23;20422;-79
2023/03/22 17:53:48;;;;;;;3.57;2.50;;;;;;;;;;6069482;23;20390;-77
2023/03/22 17:59:03;;;;;;;3.10;2.50;;;;;;;;;;6068610;23;20529;-77
2023/03/22 18:01:43;;;;;;;2.73;2.27;;;;;;;;;;6070141;23;20854;-79
2023/03/22 18:04:17;;;;;;;4.00;2.23;;;;;;;;;;6069206;23;20794;-76
2023/03/22 18:06:53;;;;;;;2.20;2.00;;;;;;;;;;6069664;23;20449;-78
2023/03/22 18:20:51;;;;;;;2.43;2.23;;;;;;;;;;6064808;23;20838;-77
2023/03/22 18:23:56;;;;;;;2.13;2.00;;;;;;;;;;6067051;23;20438;-80
2023/03/22 18:26:36;;;;;;;2.90;2.40;;;;;;;;;;6066638;23;20912;-78
2023/03/22 18:29:14;;;;;;;3.57;2.50;;;;;;;;;;6067729;23;20406;-78
2023/03/22 18:31:51;;;;;;;2.40;2.20;;;;;;;;;;6067122;23;20450;-78
2023/03/22 18:34:26;;;;;;;2.17;2.07;;;;;;;;;;6068005;23;20439;-78
2023/03/22 18:37:01;;;;;;;3.50;2.10;;;;;;;;;;6069729;23;20600;-79
2023/03/22 18:39:37;;;;;;;6.53;2.87;;;;;;;;;;6069423;23;20446;-78
2023/03/22 18:42:23;;;;;;;4.30;3.00;;;;;;;;;;6070373;23;20509;-77
2023/03/22 18:44:54;;;;;;;3.20;2.60;;;;;;;;;;6071892;23;20913;-78
2023/03/22 18:47:28;;;;;;;4.90;2.57;;;;;;;;;;6074226;23;20415;-78
2023/03/22 18:52:51;;;;;;;3.03;2.67;;;;;;;;;;6075589;23;20446;-77
2023/03/22 18:55:29;;;;;;;3.17;2.57;;;;;;;;;;6080328;23;20430;-77
2023/03/22 18:58:00;;;;;;;3.10;2.80;;;;;;;;;;6076633;23;20402;-76
2023/03/22 19:00:38;;;;;;;3.17;2.53;;;;;;;;;;6077639;23;20447;-78
2023/03/22 19:03:19;;;;;;;4.23;2.87;;;;;;;;;;6065141;23;20417;-75
2023/03/22 19:05:56;;;;;;;3.90;2.70;;;;;;;;;;6077260;23;20435;-78
2023/03/22 19:08:24;;;;;;;3.30;3.00;;;;;;;;;;6078395;23;20418;-78
2023/03/22 19:10:58;;;;;;;4.83;3.77;;;;;;;;;;6079626;23;20410;-78
2023/03/22 19:16:37;;;;;;;12.60;10.57;;;;;;;;;;6069000;23;20411;-75
2023/03/22 19:19:17;;;;;;;15.33;8.27;;;;;;;;;;6073145;23;20577;-78
2023/03/22 19:21:50;;;;;;;13.63;8.70;;;;;;;;;;6070628;23;20442;-77
2023/03/22 19:27:11;;;;;;;9.70;7.00;;;;;;;;;;6073981;23;20502;-77
2023/03/22 19:29:45;;;;;;;7.27;6.37;;;;;;;;;;6076399;23;20411;-77
2023/03/22 19:32:17;;;;;;;6.10;5.27;;;;;;;;;;6075626;23;20415;-76
2023/03/22 19:34:54;;;;;;;6.07;4.30;;;;;;;;;;6078202;23;20411;-77
2023/03/22 19:37:34;;;;;;;7.30;4.40;;;;;;;;;;6080404;23;20879;-78
2023/03/22 19:40:13;;;;;;;6.50;5.00;;;;;;;;;;6079533;23;20776;-78
2023/03/22 19:42:44;;;;;;;6.07;4.70;;;;;;;;;;6078146;23;20418;-76
2023/03/22 19:45:17;;;;;;;4.90;4.27;;;;;;;;;;6077489;23;20462;-76
2023/03/22 19:47:53;;;;;;;6.43;4.30;;;;;;;;;;6074954;23;20451;-78
2023/03/22 19:50:31;;;;;;;4.90;4.50;;;;;;;;;;6072598;23;20417;-76